Terminal Aerodrome Forecast
Issued by NWS Buffalo, NY

Home | Current Version | Previous Version | Text Only | Print | Product List | Glossary On
Versions: 1 2 3 4 5 6 7 8 9 10 11 12 13 14 15 16 17 18 19 20 21 22 23 24 25
000
FTUS41 KBUF 011725
TAFART
TAF
KART 011725Z 0118/0218 VRB03KT P6SM OVC020
     FM012100 07006KT P6SM OVC035
     FM020200 07004KT P6SM VCSH OVC035
     FM020400 07004KT 4SM SHRA OVC025
     FM020700 07004KT P6SM VCSH OVC025
     FM021300 14005KT P6SM OVC025
     FM021600 18005KT P6SM BKN035=

USA.gov is the U.S. government's official web portal to all federal, state and local government web resources and services.